createdAt,value
2023-04-27T00:01:17.586Z,7.86
2023-04-27T00:04:04.440Z,7.91
2023-04-27T00:06:49.560Z,7.97
2023-04-27T00:09:34.531Z,7.98
2023-04-27T00:12:19.384Z,7.96
2023-04-27T00:15:05.944Z,7.88
2023-04-27T00:17:51.306Z,7.85
2023-04-27T00:20:36.500Z,7.80
2023-04-27T00:23:21.629Z,7.83
2023-04-27T00:26:06.669Z,7.82
2023-04-27T00:28:51.596Z,7.71
2023-04-27T00:31:36.380Z,7.71
2023-04-27T00:34:21.588Z,7.65
2023-04-27T00:37:06.340Z,7.70
2023-04-27T00:39:51.182Z,7.68
2023-04-27T00:42:36.457Z,7.67
2023-04-27T00:45:21.826Z,7.55
2023-04-27T00:48:06.840Z,7.54
2023-04-27T00:50:51.854Z,7.53
2023-04-27T00:53:37.496Z,7.58
2023-04-27T00:56:22.689Z,7.59
2023-04-27T00:59:07.575Z,7.56
2023-04-27T01:01:53.165Z,7.55
2023-04-27T01:04:38.046Z,7.47
2023-04-27T01:07:26.695Z,7.35
2023-04-27T01:10:11.836Z,7.38
2023-04-27T01:12:57.429Z,7.38
2023-04-27T01:15:42.319Z,7.33
2023-04-27T01:18:27.237Z,7.37
2023-04-27T01:21:12.335Z,7.34
2023-04-27T01:23:57.374Z,7.43
2023-04-27T01:26:42.533Z,7.50
2023-04-27T01:29:27.297Z,7.47
2023-04-27T01:32:12.806Z,7.53
2023-04-27T01:34:57.798Z,7.55
2023-04-27T01:37:42.818Z,7.55
2023-04-27T01:40:27.657Z,7.48
2023-04-27T01:43:12.790Z,7.43
2023-04-27T01:46:09.175Z,7.32
2023-04-27T01:48:54.252Z,7.25
2023-04-27T01:51:39.195Z,7.18
2023-04-27T01:54:25.599Z,7.17
2023-04-27T01:57:12.401Z,7.18
2023-04-27T01:59:57.315Z,7.18
2023-04-27T02:02:42.430Z,7.15
2023-04-27T02:05:27.704Z,7.09
2023-04-27T02:08:12.708Z,7.05
2023-04-27T02:10:57.601Z,7.05
2023-04-27T02:13:42.676Z,7.07
2023-04-27T02:16:27.463Z,7.02
2023-04-27T02:19:12.774Z,7.06
2023-04-27T02:21:57.899Z,7.07
2023-04-27T02:24:42.941Z,7.15
2023-04-27T02:27:27.798Z,7.09
2023-04-27T02:30:13.958Z,7.08
2023-04-27T02:33:00.636Z,7.06
2023-04-27T02:35:45.947Z,7.11
2023-04-27T02:38:31.171Z,7.08
2023-04-27T02:41:16.003Z,7.09
2023-04-27T02:44:00.787Z,7.15
2023-04-27T02:46:45.788Z,7.12
2023-04-27T02:49:30.594Z,7.05
2023-04-27T02:52:15.820Z,7.07
2023-04-27T02:55:01.024Z,6.88
2023-04-27T02:57:46.324Z,6.71
2023-04-27T03:00:31.256Z,6.68
2023-04-27T03:03:16.644Z,6.71
2023-04-27T03:06:01.775Z,6.50
2023-04-27T03:08:46.891Z,6.47
2023-04-27T03:11:31.806Z,6.52
2023-04-27T03:14:16.854Z,6.44
2023-04-27T03:17:03.078Z,6.43
2023-04-27T03:19:49.147Z,6.37
2023-04-27T03:22:34.297Z,6.35
2023-04-27T03:25:19.125Z,6.27
2023-04-27T03:28:04.465Z,6.26
2023-04-27T03:30:49.567Z,6.22
2023-04-27T03:33:35.047Z,6.19
2023-04-27T03:36:19.805Z,6.04
2023-04-27T03:39:04.806Z,5.98
2023-04-27T03:41:49.608Z,5.86
2023-04-27T03:44:36.332Z,5.79
2023-04-27T03:47:21.796Z,5.74
2023-04-27T03:50:07.196Z,5.72
2023-04-27T03:52:52.271Z,5.59
2023-04-27T03:55:42.156Z,5.61
2023-04-27T03:58:27.002Z,5.57
2023-04-27T04:01:12.003Z,5.58
2023-04-27T04:03:57.062Z,5.56
2023-04-27T04:06:41.887Z,5.55
2023-04-27T04:09:27.324Z,5.52
2023-04-27T04:12:13.455Z,5.41
2023-04-27T04:14:58.606Z,5.35
2023-04-27T04:17:43.895Z,5.29
2023-04-27T04:20:28.977Z,5.29
2023-04-27T04:23:14.206Z,5.22
2023-04-27T04:25:58.947Z,5.20
2023-04-27T04:28:44.143Z,5.15
2023-04-27T04:31:29.633Z,5.12
2023-04-27T04:34:15.719Z,5.17
2023-04-27T04:37:00.558Z,5.21
2023-04-27T04:39:45.679Z,5.18
2023-04-27T04:42:30.447Z,5.13
2023-04-27T04:45:15.635Z,5.12
2023-04-27T04:48:03.958Z,5.18
2023-04-27T04:50:48.967Z,5.18
2023-04-27T04:53:33.717Z,5.22
2023-04-27T04:56:18.706Z,5.26
2023-04-27T04:59:03.830Z,5.29
2023-04-27T05:01:48.603Z,5.27
2023-04-27T05:04:33.807Z,5.26
2023-04-27T05:07:23.261Z,5.36
2023-04-27T05:10:10.011Z,5.47
2023-04-27T05:12:55.223Z,5.57
2023-04-27T05:15:40.888Z,5.58
2023-04-27T05:18:25.949Z,5.64
2023-04-27T05:21:15.556Z,5.68
2023-04-27T05:24:00.723Z,5.68
2023-04-27T05:26:45.601Z,5.78
2023-04-27T05:29:30.458Z,5.67
2023-04-27T05:32:15.689Z,5.88
2023-04-27T05:35:00.653Z,5.96
2023-04-27T05:37:45.679Z,6.01
2023-04-27T05:40:30.590Z,6.15
2023-04-27T05:43:15.647Z,5.99
2023-04-27T05:46:00.800Z,6.08
2023-04-27T05:48:45.754Z,5.96
2023-04-27T05:51:32.517Z,6.09
2023-04-27T05:54:17.440Z,6.28
2023-04-27T05:57:02.331Z,6.38
2023-04-27T05:59:47.573Z,6.30
2023-04-27T06:02:32.674Z,6.30
2023-04-27T06:05:18.441Z,6.37
2023-04-27T06:08:03.285Z,6.62
2023-04-27T06:10:49.808Z,6.64
2023-04-27T06:13:34.638Z,6.58
2023-04-27T06:16:20.745Z,6.66
2023-04-27T06:19:06.271Z,6.80
2023-04-27T06:21:51.270Z,6.96
2023-04-27T06:24:36.438Z,6.91
2023-04-27T06:27:21.425Z,7.02
2023-04-27T06:30:07.739Z,6.88
2023-04-27T06:32:53.007Z,6.94
2023-04-27T06:35:37.932Z,7.19
2023-04-27T06:38:23.014Z,7.22
2023-04-27T06:41:07.899Z,7.48
2023-04-27T06:43:53.726Z,7.41
2023-04-27T06:46:39.123Z,7.70
2023-04-27T06:49:24.285Z,7.26
2023-04-27T06:52:09.568Z,7.50
2023-04-27T06:54:54.327Z,7.62
2023-04-27T06:57:39.461Z,7.78
2023-04-27T07:00:24.490Z,7.64
2023-04-27T07:03:09.502Z,7.84
2023-04-27T07:05:56.482Z,7.96
2023-04-27T07:08:41.334Z,8.28
2023-04-27T07:11:26.439Z,8.19
2023-04-27T07:14:11.450Z,8.51
2023-04-27T07:16:56.352Z,8.47
2023-04-27T07:19:41.682Z,8.89
2023-04-27T07:22:26.815Z,8.92
2023-04-27T07:25:11.940Z,9.12
2023-04-27T07:27:56.859Z,9.15
2023-04-27T07:30:42.544Z,8.87
2023-04-27T07:33:27.791Z,9.08
2023-04-27T07:36:12.547Z,9.15
2023-04-27T07:38:58.590Z,8.66
2023-04-27T07:41:43.498Z,9.09
2023-04-27T07:44:28.694Z,9.12
2023-04-27T07:47:13.822Z,9.01
2023-04-27T07:49:58.650Z,8.82
2023-04-27T07:52:43.672Z,9.20
2023-04-27T07:55:28.687Z,8.59
2023-04-27T07:58:13.754Z,9.36
2023-04-27T08:00:58.563Z,9.53
2023-04-27T08:03:43.860Z,10.78
2023-04-27T08:06:29.864Z,12.08
2023-04-27T08:09:15.628Z,10.52
2023-04-27T08:12:02.838Z,10.42
2023-04-27T08:14:47.725Z,11.65
2023-04-27T08:17:32.526Z,11.16
2023-04-27T08:20:17.574Z,11.80
2023-04-27T08:23:02.484Z,13.87
2023-04-27T08:25:48.408Z,15.02
2023-04-27T08:28:33.519Z,14.74
2023-04-27T08:31:18.692Z,15.61
2023-04-27T08:34:03.675Z,16.99
2023-04-27T08:36:48.415Z,17.39
2023-04-27T08:39:33.256Z,19.45
2023-04-27T08:42:18.324Z,19.20
2023-04-27T08:45:04.393Z,17.34
2023-04-27T08:47:49.487Z,14.17
2023-04-27T08:50:38.600Z,13.97
2023-04-27T08:53:23.653Z,15.56
2023-04-27T08:56:08.403Z,16.52
2023-04-27T08:58:53.363Z,15.92
2023-04-27T09:01:44.762Z,15.33
2023-04-27T09:04:41.873Z,16.61
2023-04-27T09:07:28.790Z,15.11
2023-04-27T09:10:15.358Z,14.20
2023-04-27T09:13:00.955Z,15.96
2023-04-27T09:15:48.753Z,17.32
2023-04-27T09:18:37.969Z,14.16
2023-04-27T09:21:24.958Z,18.16
2023-04-27T09:24:13.761Z,17.27
2023-04-27T09:27:00.807Z,15.40
2023-04-27T09:29:46.118Z,17.99
2023-04-27T09:32:31.148Z,20.62
2023-04-27T09:35:29.090Z,19.15
2023-04-27T09:38:15.885Z,15.25
2023-04-27T09:41:02.977Z,16.75
2023-04-27T09:43:48.748Z,18.30
2023-04-27T09:46:34.178Z,13.04
2023-04-27T09:49:20.500Z,15.70
2023-04-27T09:52:05.670Z,17.47
2023-04-27T09:54:50.843Z,16.97
2023-04-27T09:57:44.900Z,18.56
2023-04-27T10:00:59.067Z,15.30
2023-04-27T10:04:35.120Z,16.74
2023-04-27T10:07:20.518Z,16.01
2023-04-27T10:10:05.856Z,13.67
2023-04-27T10:13:23.742Z,13.71
2023-04-27T10:16:16.718Z,15.85
2023-04-27T10:19:09.905Z,15.76
2023-04-27T10:22:03.700Z,17.11
2023-04-27T10:24:50.474Z,14.81
2023-04-27T10:27:39.578Z,17.14
2023-04-27T10:30:26.362Z,17.69
2023-04-27T10:33:15.834Z,15.25
2023-04-27T10:36:00.875Z,16.48
2023-04-27T10:38:46.531Z,15.43
2023-04-27T10:41:35.458Z,17.07
2023-04-27T10:44:27.399Z,17.96
2023-04-27T10:47:18.502Z,19.61
2023-04-27T10:50:05.740Z,16.03
2023-04-27T10:52:51.132Z,18.15
2023-04-27T10:55:37.320Z,18.65
2023-04-27T10:58:28.142Z,18.38
2023-04-27T11:01:27.215Z,17.76
2023-04-27T11:04:12.940Z,15.64
2023-04-27T11:06:58.576Z,17.53
2023-04-27T11:09:43.595Z,17.34
2023-04-27T11:12:28.391Z,14.96
2023-04-27T11:15:14.133Z,14.81
2023-04-27T11:18:05.518Z,16.42
2023-04-27T11:21:05.600Z,14.80
2023-04-27T11:23:50.733Z,14.73
2023-04-27T11:26:35.846Z,14.96
2023-04-27T11:29:21.220Z,15.41
2023-04-27T11:32:06.424Z,16.96
2023-04-27T11:34:55.597Z,18.34
2023-04-27T11:37:42.340Z,17.32
2023-04-27T11:40:28.929Z,14.39
2023-04-27T11:43:14.313Z,15.19
2023-04-27T11:46:03.393Z,14.90
2023-04-27T11:48:48.923Z,15.19
2023-04-27T11:51:34.652Z,15.57
2023-04-27T11:54:19.813Z,15.53
2023-04-27T11:57:06.003Z,15.22
2023-04-27T11:59:51.859Z,15.66
2023-04-27T12:02:37.738Z,14.50
2023-04-27T12:05:23.116Z,14.84
2023-04-27T12:08:07.930Z,14.54
2023-04-27T12:10:52.778Z,14.27
2023-04-27T12:13:37.822Z,14.35
2023-04-27T12:16:23.135Z,14.04
2023-04-27T12:19:08.073Z,13.90
2023-04-27T12:21:53.975Z,13.82
2023-04-27T12:24:39.162Z,14.55
2023-04-27T12:27:24.118Z,14.65
2023-04-27T12:30:09.569Z,14.14
2023-04-27T12:32:54.448Z,14.73
2023-04-27T12:35:40.174Z,14.29
2023-04-27T12:38:25.183Z,14.35
2023-04-27T12:41:10.429Z,14.18
2023-04-27T12:43:56.577Z,14.49
2023-04-27T12:46:42.845Z,14.37
2023-04-27T12:49:28.035Z,15.30
2023-04-27T12:52:13.483Z,15.42
2023-04-27T12:54:59.189Z,14.97
2023-04-27T12:57:44.368Z,14.99
2023-04-27T13:00:29.676Z,15.73
2023-04-27T13:03:15.268Z,15.31
2023-04-27T13:06:00.329Z,15.66
2023-04-27T13:08:46.336Z,16.12
2023-04-27T13:11:31.537Z,16.06
2023-04-27T13:14:16.903Z,15.97
2023-04-27T13:17:02.530Z,15.90
2023-04-27T13:19:47.356Z,16.13
2023-04-27T13:22:32.189Z,16.18
2023-04-27T13:25:17.524Z,14.79
2023-04-27T13:28:02.627Z,15.40
2023-04-27T13:30:48.757Z,15.88
2023-04-27T13:33:39.700Z,15.49
2023-04-27T13:36:24.475Z,14.99
2023-04-27T13:39:09.431Z,15.18
2023-04-27T13:41:54.220Z,15.49
2023-04-27T13:44:39.346Z,15.20
2023-04-27T13:47:24.079Z,14.93
2023-04-27T13:50:10.928Z,14.62
2023-04-27T13:52:55.931Z,14.87
2023-04-27T13:55:41.197Z,14.91
2023-04-27T13:58:27.910Z,15.17
2023-04-27T14:01:12.711Z,15.13
2023-04-27T14:03:57.687Z,15.09
2023-04-27T14:06:42.509Z,14.59
2023-04-27T14:09:27.452Z,15.45
2023-04-27T14:12:13.475Z,15.58
2023-04-27T14:14:59.443Z,14.85
2023-04-27T14:17:44.551Z,15.06
2023-04-27T14:20:29.237Z,14.49
2023-04-27T14:23:14.212Z,15.21
2023-04-27T14:25:59.035Z,15.69
2023-04-27T14:28:44.159Z,15.42
2023-04-27T14:31:29.539Z,14.89
2023-04-27T14:34:14.662Z,15.31
2023-04-27T14:36:59.822Z,14.78
2023-04-27T14:39:45.734Z,15.11
2023-04-27T14:42:31.788Z,15.25
2023-04-27T14:45:18.708Z,15.44
2023-04-27T14:48:03.889Z,15.44
2023-04-27T14:50:49.178Z,15.61
2023-04-27T14:53:33.971Z,15.78
2023-04-27T14:56:19.147Z,15.66
2023-04-27T14:59:05.051Z,15.66
2023-04-27T15:01:50.149Z,15.74
2023-04-27T15:04:35.740Z,15.23
2023-04-27T15:07:21.292Z,15.51
2023-04-27T15:10:06.905Z,15.76
2023-04-27T15:12:51.794Z,16.22
2023-04-27T15:15:37.421Z,15.79
2023-04-27T15:18:23.241Z,15.59
2023-04-27T15:21:08.000Z,15.61
2023-04-27T15:23:52.911Z,15.68
2023-04-27T15:26:37.974Z,15.14
2023-04-27T15:29:22.803Z,15.60
2023-04-27T15:32:08.145Z,15.42
2023-04-27T15:34:52.998Z,15.12
2023-04-27T15:37:38.355Z,15.39
2023-04-27T15:40:23.226Z,15.51
2023-04-27T15:43:08.494Z,15.15
2023-04-27T15:45:53.558Z,15.23
2023-04-27T15:48:38.285Z,15.17
2023-04-27T15:51:23.251Z,15.41
2023-04-27T15:54:08.393Z,15.23
2023-04-27T15:56:53.238Z,15.14
2023-04-27T15:59:38.310Z,14.93
2023-04-27T16:02:23.379Z,14.92
2023-04-27T16:05:09.452Z,15.10
2023-04-27T16:07:54.477Z,14.92
2023-04-27T16:10:39.710Z,15.02
2023-04-27T16:13:24.878Z,15.03
2023-04-27T16:16:09.833Z,15.20
2023-04-27T16:18:54.630Z,14.90
2023-04-27T16:21:39.818Z,14.96
2023-04-27T16:24:25.083Z,14.88
2023-04-27T16:27:10.385Z,15.03
2023-04-27T16:29:56.367Z,15.23
2023-04-27T16:32:41.627Z,15.38
2023-04-27T16:35:28.972Z,15.35
2023-04-27T16:38:13.989Z,15.49
2023-04-27T16:40:58.868Z,15.29
2023-04-27T16:43:43.814Z,15.24
2023-04-27T16:46:28.793Z,15.16
2023-04-27T16:49:14.226Z,14.93
2023-04-27T16:51:59.293Z,15.00
2023-04-27T16:54:44.350Z,15.04
2023-04-27T16:57:29.225Z,14.93
2023-04-27T17:00:15.105Z,15.15
2023-04-27T17:03:00.948Z,15.14
2023-04-27T17:05:46.005Z,15.14
2023-04-27T17:08:31.126Z,15.16
2023-04-27T17:11:15.894Z,14.96
2023-04-27T17:14:01.025Z,15.09
2023-04-27T17:16:45.926Z,15.18
2023-04-27T17:19:30.816Z,15.19
2023-04-27T17:22:16.473Z,15.01
2023-04-27T17:25:01.727Z,14.87
2023-04-27T17:27:47.039Z,14.80
2023-04-27T17:30:31.929Z,14.74
2023-04-27T17:33:17.182Z,14.74
2023-04-27T17:36:02.041Z,14.73
2023-04-27T17:38:48.579Z,14.69
2023-04-27T17:41:34.873Z,14.69
2023-04-27T17:44:21.959Z,14.64
2023-04-27T17:47:06.863Z,14.64
2023-04-27T17:49:51.818Z,14.63
2023-04-27T17:52:37.466Z,14.65
2023-04-27T17:55:22.585Z,14.63
2023-04-27T17:58:07.311Z,14.59
2023-04-27T18:00:52.313Z,14.59
2023-04-27T18:03:37.551Z,14.59
2023-04-27T18:06:22.907Z,14.59
2023-04-27T18:09:07.951Z,14.54
2023-04-27T18:11:52.923Z,14.50
2023-04-27T18:14:38.502Z,14.46
2023-04-27T18:17:24.082Z,14.41
2023-04-27T18:20:10.487Z,14.34
2023-04-27T18:22:56.517Z,14.30
2023-04-27T18:25:41.486Z,14.26
2023-04-27T18:28:26.517Z,14.16
2023-04-27T18:31:19.033Z,14.12
2023-04-27T18:34:04.245Z,14.20
2023-04-27T18:36:52.095Z,14.19
2023-04-27T18:39:37.360Z,14.17
2023-04-27T18:42:23.311Z,14.13
2023-04-27T18:45:08.906Z,14.13
2023-04-27T18:47:53.790Z,14.15
2023-04-27T18:50:38.842Z,14.14
2023-04-27T18:53:23.637Z,14.09
2023-04-27T18:56:10.079Z,13.98
2023-04-27T18:58:55.820Z,13.98
2023-04-27T19:01:41.036Z,13.99
2023-04-27T19:04:26.191Z,14.00
2023-04-27T19:07:11.383Z,13.97
2023-04-27T19:09:56.210Z,13.98
2023-04-27T19:12:41.289Z,13.89
2023-04-27T19:15:26.312Z,13.86
2023-04-27T19:18:11.824Z,13.81
2023-04-27T19:20:57.942Z,13.80
2023-04-27T19:23:45.036Z,13.59
2023-04-27T19:26:30.037Z,13.62
2023-04-27T19:29:15.397Z,13.64
2023-04-27T19:32:02.000Z,13.57
2023-04-27T19:34:47.570Z,13.64
2023-04-27T19:37:32.717Z,13.54
2023-04-27T19:40:18.283Z,13.53
2023-04-27T19:43:05.495Z,13.50
2023-04-27T19:45:51.102Z,13.50
2023-04-27T19:48:36.503Z,13.51
2023-04-27T19:51:21.820Z,13.45
2023-04-27T19:54:07.002Z,13.34
2023-04-27T19:56:52.089Z,13.31
2023-04-27T19:59:37.810Z,13.34
2023-04-27T20:02:23.219Z,13.35
2023-04-27T20:05:08.558Z,13.40
2023-04-27T20:07:53.953Z,13.42
2023-04-27T20:10:40.871Z,13.28
2023-04-27T20:13:26.203Z,13.31
2023-04-27T20:16:10.942Z,13.36
2023-04-27T20:18:55.855Z,13.24
2023-04-27T20:21:41.020Z,13.20
2023-04-27T20:24:26.846Z,13.18
2023-04-27T20:27:11.870Z,13.15
2023-04-27T20:29:56.607Z,13.17
2023-04-27T20:32:41.705Z,13.24
2023-04-27T20:35:27.561Z,13.28
2023-04-27T20:38:12.966Z,13.24
2023-04-27T20:40:58.468Z,13.24
2023-04-27T20:43:44.614Z,13.21
2023-04-27T20:46:29.749Z,13.19
2023-04-27T20:49:18.964Z,13.18
2023-04-27T20:52:06.802Z,13.18
2023-04-27T20:54:52.074Z,13.18
2023-04-27T20:57:37.107Z,13.07
2023-04-27T21:00:21.858Z,12.96
2023-04-27T21:03:07.988Z,12.86
2023-04-27T21:05:53.019Z,12.92
2023-04-27T21:08:38.521Z,12.93
2023-04-27T21:11:23.620Z,12.91
2023-04-27T21:14:08.524Z,12.95
2023-04-27T21:16:53.459Z,12.96
2023-04-27T21:19:38.413Z,12.90
2023-04-27T21:22:23.563Z,12.78
2023-04-27T21:25:08.716Z,12.52
2023-04-27T21:27:53.833Z,12.46
2023-04-27T21:30:39.725Z,12.69
2023-04-27T21:33:24.714Z,12.72
2023-04-27T21:36:09.834Z,12.58
2023-04-27T21:38:54.614Z,12.45
2023-04-27T21:41:40.890Z,12.40
2023-04-27T21:44:25.785Z,12.39
2023-04-27T21:47:11.225Z,12.30
2023-04-27T21:49:56.327Z,12.33
2023-04-27T21:52:41.369Z,12.28
2023-04-27T21:55:26.392Z,12.24
2023-04-27T21:58:11.522Z,12.15
2023-04-27T22:00:56.422Z,12.19
2023-04-27T22:03:41.874Z,12.17
2023-04-27T22:06:27.462Z,12.21
2023-04-27T22:09:12.366Z,12.28
2023-04-27T22:11:57.680Z,12.20
2023-04-27T22:14:42.771Z,12.14
2023-04-27T22:17:27.769Z,12.16
2023-04-27T22:20:14.221Z,12.15
2023-04-27T22:22:59.196Z,12.18
2023-04-27T22:25:44.369Z,12.20
2023-04-27T22:28:29.216Z,12.22
2023-04-27T22:31:14.564Z,12.19
2023-04-27T22:33:59.649Z,12.16
2023-04-27T22:36:44.825Z,12.15
2023-04-27T22:39:30.396Z,12.05
2023-04-27T22:42:15.588Z,12.07
2023-04-27T22:45:00.362Z,12.05
2023-04-27T22:47:45.829Z,11.97
2023-04-27T22:50:30.775Z,12.04
2023-04-27T22:53:16.050Z,11.99
2023-04-27T22:56:00.923Z,11.96
2023-04-27T22:58:46.568Z,11.94
2023-04-27T23:01:31.652Z,11.89
2023-04-27T23:04:17.583Z,11.92
2023-04-27T23:07:03.725Z,11.90
2023-04-27T23:09:49.630Z,11.93
2023-04-27T23:12:34.957Z,11.92
2023-04-27T23:15:20.677Z,11.81
2023-04-27T23:18:06.228Z,11.87
2023-04-27T23:20:54.811Z,11.77
2023-04-27T23:23:39.916Z,11.72
2023-04-27T23:26:24.649Z,11.70
2023-04-27T23:29:09.789Z,11.70
2023-04-27T23:31:54.505Z,11.79
2023-04-27T23:34:39.697Z,11.81
2023-04-27T23:37:24.831Z,11.82
2023-04-27T23:40:10.070Z,11.81
2023-04-27T23:42:55.683Z,11.74
2023-04-27T23:45:40.900Z,11.68
2023-04-27T23:48:25.660Z,11.70
2023-04-27T23:51:10.858Z,11.69
2023-04-27T23:53:56.311Z,11.73
2023-04-27T23:56:41.396Z,11.74
2023-04-27T23:59:26.306Z,11.72
